createdAt,value
2022-12-19T00:04:07.539Z,102803.59
2022-12-19T00:09:29.766Z,102804.88
2022-12-19T00:14:53.990Z,102824.56
2022-12-19T00:20:18.724Z,102815.69
2022-12-19T00:25:40.572Z,102809.97
2022-12-19T00:31:04.404Z,102805.59
2022-12-19T00:36:33.924Z,102826.16
2022-12-19T00:41:55.698Z,102810.19
2022-12-19T00:47:17.560Z,102811.59
2022-12-19T00:52:39.354Z,102836.06
2022-12-19T00:58:01.142Z,102819.06
2022-12-19T01:03:23.556Z,102824.56
2022-12-19T01:08:45.510Z,102820.91
2022-12-19T01:14:07.346Z,102822.47
2022-12-19T01:19:29.282Z,102804.88
2022-12-19T01:24:51.175Z,102801.50
2022-12-19T01:30:13.287Z,102802.66
2022-12-19T01:35:36.388Z,102793.31
2022-12-19T01:40:58.292Z,102788.34
2022-12-19T01:46:43.571Z,102771.41
2022-12-19T01:52:08.902Z,102766.16
2022-12-19T01:57:33.747Z,102762.13
2022-12-19T02:03:27.851Z,102777.13
2022-12-19T02:08:51.156Z,102782.97
2022-12-19T02:14:13.223Z,102777.66
2022-12-19T02:20:03.033Z,102771.00
2022-12-19T02:25:43.701Z,102771.41
2022-12-19T02:31:08.184Z,102762.78
2022-12-19T02:36:50.810Z,102764.13
2022-12-19T02:42:25.158Z,102774.13
2022-12-19T02:47:49.570Z,102768.25
2022-12-19T02:53:13.369Z,102744.41
2022-12-19T02:58:56.524Z,102762.50
2022-12-19T03:04:30.505Z,102757.63
2022-12-19T03:09:56.784Z,102747.63
2022-12-19T03:15:19.995Z,102723.47
2022-12-19T03:20:51.977Z,102723.72
2022-12-19T03:26:22.568Z,102750.94
2022-12-19T03:31:46.363Z,102742.19
2022-12-19T03:37:14.376Z,102754.22
2022-12-19T03:42:39.608Z,102730.75
2022-12-19T03:48:09.983Z,102740.03
2022-12-19T03:53:34.486Z,102733.53
2022-12-19T03:59:04.836Z,102735.53
2022-12-19T04:04:27.372Z,102720.59
2022-12-19T04:09:50.645Z,102730.47
2022-12-19T04:15:12.980Z,102711.81
2022-12-19T04:20:38.114Z,102687.13
2022-12-19T04:26:03.411Z,102702.03
2022-12-19T04:31:25.419Z,102704.53
2022-12-19T04:36:48.953Z,102675.88
2022-12-19T04:42:10.889Z,102666.44
2022-12-19T04:47:32.791Z,102661.44
2022-12-19T04:52:57.210Z,102647.81
2022-12-19T04:58:22.023Z,102656.81
2022-12-19T05:03:44.169Z,102647.66
2022-12-19T05:09:06.167Z,102644.28
2022-12-19T05:14:28.017Z,102642.53
2022-12-19T05:19:49.836Z,102650.81
2022-12-19T05:25:11.634Z,102651.41
2022-12-19T05:30:33.432Z,102627.13
2022-12-19T05:35:55.261Z,102630.38
2022-12-19T05:41:19.641Z,102643.88
2022-12-19T05:46:41.548Z,102632.53
2022-12-19T05:52:03.480Z,102632.63
2022-12-19T05:57:25.447Z,102628.25
2022-12-19T06:02:47.410Z,102603.81
2022-12-19T06:08:09.265Z,102621.97
2022-12-19T06:13:32.142Z,102603.84
2022-12-19T06:18:54.669Z,102605.69
2022-12-19T06:24:16.891Z,102609.03
2022-12-19T06:29:38.696Z,102619.22
2022-12-19T06:35:04.572Z,102618.16
2022-12-19T06:40:26.831Z,102645.31
2022-12-19T06:45:49.017Z,102619.66
2022-12-19T06:51:10.857Z,102638.16
2022-12-19T06:56:36.786Z,102651.41
2022-12-19T07:02:18.473Z,102661.78
2022-12-19T07:07:40.396Z,102644.66
2022-12-19T07:13:02.269Z,102630.31
2022-12-19T07:18:24.184Z,102632.88
2022-12-19T07:23:46.337Z,102630.16
2022-12-19T07:29:10.477Z,102628.50
2022-12-19T07:34:33.750Z,102600.13
2022-12-19T07:39:55.599Z,102602.81
2022-12-19T07:45:17.469Z,102610.72
2022-12-19T07:50:39.317Z,102604.72
2022-12-19T07:56:01.088Z,102616.91
2022-12-19T08:01:23.085Z,102619.31
2022-12-19T08:06:45.013Z,102625.72
2022-12-19T08:12:07.182Z,102599.53
2022-12-19T08:17:29.084Z,102589.13
2022-12-19T08:22:50.940Z,102595.09
2022-12-19T08:28:12.803Z,102563.06
2022-12-19T08:33:35.011Z,102561.06
2022-12-19T08:38:56.860Z,102558.69
2022-12-19T08:44:18.901Z,102536.31
2022-12-19T08:49:40.776Z,102532.59
2022-12-19T08:55:02.826Z,102531.34
2022-12-19T09:00:24.835Z,102510.78
2022-12-19T09:06:03.880Z,102498.50
2022-12-19T09:11:28.773Z,102481.81
2022-12-19T09:16:50.934Z,102487.00
2022-12-19T09:22:12.901Z,102476.72
2022-12-19T09:28:01.354Z,102470.44
2022-12-19T09:33:16.527Z,102456.13
2022-12-19T09:38:38.394Z,102458.72
2022-12-19T09:44:15.635Z,102456.28
2022-12-19T09:49:43.172Z,102436.19
2022-12-19T09:55:24.156Z,102423.16
2022-12-19T10:00:59.546Z,102391.34
2022-12-19T10:07:12.934Z,102387.47
2022-12-19T10:12:45.911Z,102382.50
2022-12-19T10:18:13.058Z,102365.41
2022-12-19T10:24:06.183Z,102356.91
2022-12-19T10:29:50.037Z,102340.53
2022-12-19T10:35:14.559Z,102332.03
2022-12-19T10:40:49.197Z,102340.72
2022-12-19T10:46:17.411Z,102322.03
2022-12-19T10:51:39.707Z,102319.69
2022-12-19T10:57:27.206Z,102289.97
2022-12-19T11:02:51.908Z,102292.81
2022-12-19T11:08:20.957Z,102303.72
2022-12-19T11:18:35.186Z,102268.75
2022-12-19T11:29:41.907Z,102271.97
2022-12-19T11:30:59.587Z,102267.03
2022-12-19T11:37:06.804Z,102265.84
2022-12-19T11:42:37.283Z,102254.25
2022-12-19T11:48:08.885Z,102234.66
2022-12-19T11:53:40.913Z,102252.66
2022-12-19T11:59:18.702Z,102249.00
2022-12-19T12:05:08.120Z,102228.00
2022-12-19T12:15:06.897Z,102214.13
2022-12-19T12:28:01.879Z,102227.28
2022-12-19T12:31:07.145Z,102209.69
2022-12-19T12:31:42.621Z,102191.78
2022-12-19T12:35:46.563Z,102167.97
2022-12-19T12:40:58.509Z,102167.97
2022-12-19T12:46:26.230Z,102150.66
2022-12-19T12:51:49.119Z,102160.22
2022-12-19T12:57:39.989Z,102167.59
2022-12-19T13:03:07.116Z,102145.63
2022-12-19T13:08:38.034Z,102133.16
2022-12-19T13:14:00.744Z,102125.31
2022-12-19T13:19:29.090Z,102162.47
2022-12-19T13:24:53.229Z,102147.28
2022-12-19T13:30:16.735Z,102126.97
2022-12-19T13:39:04.835Z,102101.78
2022-12-19T13:41:39.660Z,102100.66
2022-12-19T13:47:01.510Z,102102.56
2022-12-19T13:52:23.324Z,102090.56
2022-12-19T13:57:53.580Z,102080.63
2022-12-19T14:03:20.953Z,102063.91
2022-12-19T14:08:45.733Z,102065.38
2022-12-19T14:14:25.534Z,102059.38
2022-12-19T14:19:52.635Z,102053.38
2022-12-19T14:28:15.783Z,102051.88
2022-12-19T14:31:25.908Z,102041.53
2022-12-19T14:36:52.478Z,102023.38
2022-12-19T14:42:16.685Z,102032.75
2022-12-19T14:54:04.969Z,102027.81
2022-12-19T14:54:22.085Z,101991.69
2022-12-19T14:59:05.708Z,101983.16
2022-12-19T15:04:53.009Z,101978.25
2022-12-19T15:11:05.552Z,101981.72
2022-12-19T15:16:02.318Z,101965.69
2022-12-19T15:21:24.808Z,101964.22
2022-12-19T15:26:50.218Z,101949.63
2022-12-19T15:32:16.430Z,101954.75
2022-12-19T15:37:38.291Z,101955.91
2022-12-19T15:43:00.617Z,101939.88
2022-12-19T15:48:22.581Z,101929.53
2022-12-19T15:53:44.469Z,101931.84
2022-12-19T15:59:21.501Z,101949.22
2022-12-19T16:04:44.515Z,101936.78
2022-12-19T16:10:07.370Z,101905.38
2022-12-19T16:15:31.949Z,101897.22
2022-12-19T16:20:55.773Z,101906.34
2022-12-19T16:26:33.654Z,101893.78
2022-12-19T16:31:55.913Z,101883.03
2022-12-19T16:37:17.908Z,101861.56
2022-12-19T16:42:39.790Z,101855.38
2022-12-19T16:48:01.576Z,101826.91
2022-12-19T16:53:23.542Z,101812.53
2022-12-19T16:58:45.412Z,101833.53
2022-12-19T17:04:07.228Z,101812.66
2022-12-19T17:09:29.062Z,101814.00
2022-12-19T17:14:50.928Z,101800.75
2022-12-19T17:20:21.403Z,101785.13
2022-12-19T17:25:43.811Z,101776.81
2022-12-19T17:31:24.157Z,101783.31
2022-12-19T17:36:46.254Z,101761.31
2022-12-19T17:42:18.435Z,101767.63
2022-12-19T17:47:40.608Z,101753.50
2022-12-19T17:53:02.480Z,101741.34
2022-12-19T17:58:24.347Z,101726.44
2022-12-19T18:03:47.296Z,101748.84
2022-12-19T18:09:24.096Z,101726.41
2022-12-19T18:14:46.011Z,101742.34
2022-12-19T18:20:32.034Z,101743.56
2022-12-19T18:26:00.925Z,101727.31
2022-12-19T18:31:25.826Z,101690.56
2022-12-19T18:36:48.530Z,101702.25
2022-12-19T18:42:20.635Z,101687.84
2022-12-19T18:47:49.735Z,101683.50
2022-12-19T18:53:15.747Z,101681.88
2022-12-19T18:58:37.765Z,101669.78
2022-12-19T19:03:59.732Z,101670.41
2022-12-19T19:09:21.869Z,101667.50
2022-12-19T19:14:44.296Z,101664.84
2022-12-19T19:20:06.974Z,101648.53
2022-12-19T19:25:28.805Z,101627.06
2022-12-19T19:30:52.141Z,101633.59
2022-12-19T19:36:23.076Z,101613.63
2022-12-19T19:41:44.938Z,101630.56
2022-12-19T19:47:06.919Z,101612.31
2022-12-19T19:52:28.745Z,101606.09
2022-12-19T19:57:50.695Z,101602.16
2022-12-19T20:03:18.562Z,101599.41
2022-12-19T20:08:44.197Z,101585.47
2022-12-19T20:14:06.061Z,101587.75
2022-12-19T20:19:27.985Z,101580.41
2022-12-19T20:24:49.852Z,101578.66
2022-12-19T20:30:12.086Z,101574.75
2022-12-19T20:35:33.926Z,101560.94
2022-12-19T20:40:55.776Z,101545.75
2022-12-19T20:46:20.272Z,101537.34
2022-12-19T20:51:42.215Z,101547.13
2022-12-19T20:57:04.000Z,101539.00
2022-12-19T21:02:25.937Z,101532.56
2022-12-19T21:07:47.828Z,101532.44
2022-12-19T21:13:09.638Z,101521.75
2022-12-19T21:18:31.544Z,101514.03
2022-12-19T21:23:54.904Z,101504.50
2022-12-19T21:29:16.757Z,101493.94
2022-12-19T21:34:38.603Z,101487.78
2022-12-19T21:40:00.506Z,101465.75
2022-12-19T21:45:22.319Z,101475.50
2022-12-19T21:50:44.213Z,101460.78
2022-12-19T21:56:12.268Z,101434.59
2022-12-19T22:01:34.282Z,101427.66
2022-12-19T22:06:56.267Z,101409.81
2022-12-19T22:12:18.126Z,101404.13
2022-12-19T22:17:39.948Z,101398.16
2022-12-19T22:23:01.773Z,101394.78
2022-12-19T22:28:23.609Z,101373.53
2022-12-19T22:33:46.442Z,101382.69
2022-12-19T22:39:13.573Z,101379.38
2022-12-19T22:44:35.469Z,101359.53
2022-12-19T22:49:57.420Z,101355.75
2022-12-19T22:55:19.312Z,101348.72
2022-12-19T23:00:42.244Z,101345.28
2022-12-19T23:06:04.221Z,101337.75
2022-12-19T23:11:33.187Z,101315.88
2022-12-19T23:16:55.139Z,101286.56
2022-12-19T23:22:17.043Z,101317.19
2022-12-19T23:27:40.386Z,101309.38
2022-12-19T23:33:02.382Z,101285.75
2022-12-19T23:38:24.219Z,101283.16
2022-12-19T23:43:46.160Z,101296.38
2022-12-19T23:49:08.173Z,101294.25
2022-12-19T23:54:30.273Z,101290.13
2022-12-19T23:59:52.172Z,101279.63
